Time;durP1;ratioP1;P1;durP2;ratioP2;P2;SDS_P1;SDS_P2;PMS_P1;PMS_P2;Temp;Humidity;BMP_temperature;BMP_pressure;BME280_temperature;BME280_humidity;BME280_pressure;Samples;Min_cycle;Max_cycle;Signal;HPM_P1;HPM_P2
2021/11/09 00:01:55;;;;;;;1.70;0.90;;;;;;;7.62;67.89;99856.70;1704465;81;21394;-55
2021/11/09 00:04:24;;;;;;;2.12;0.85;;;;;;;7.62;67.98;99856.70;1710250;82;20887;-55
2021/11/09 00:07:00;;;;;;;2.37;0.90;;;;;;;7.65;68.08;99853.92;1710978;83;20994;-56
2021/11/09 00:09:18;;;;;;;2.40;0.90;;;;;;;7.69;68.08;99848.85;1710822;82;21082;-55
2021/11/09 00:11:45;;;;;;;2.00;0.87;;;;;;;7.72;68.07;99852.77;1715068;83;20986;-55
2021/11/09 00:14:11;;;;;;;1.50;0.83;;;;;;;7.74;68.11;99857.63;1712020;82;20974;-56
2021/11/09 00:16:38;;;;;;;2.80;0.90;;;;;;;7.76;68.09;99859.76;1707576;83;20938;-56
2021/11/09 00:19:05;;;;;;;5.07;0.90;;;;;;;7.74;68.10;99865.16;1714301;82;20977;-55
2021/11/09 00:21:32;;;;;;;1.87;0.80;;;;;;;7.72;68.15;99852.31;1711629;83;21555;-56
2021/11/09 00:24:01;;;;;;;4.57;1.00;;;;;;;7.70;68.26;99859.98;1710110;82;21503;-55
2021/11/09 00:26:28;;;;;;;3.17;1.13;;;;;;;7.66;68.34;99859.20;1711230;83;20946;-55
2021/11/09 00:28:55;;;;;;;1.77;1.00;;;;;;;7.64;68.40;99862.42;1711870;82;20962;-55
2021/11/09 00:31:22;;;;;;;2.40;1.07;;;;;;;7.62;68.54;99864.73;1710779;83;20950;-55
2021/11/09 00:33:48;;;;;;;4.30;0.83;;;;;;;7.60;68.63;99862.10;1691413;83;21108;-56
2021/11/09 00:36:14;;;;;;;2.13;0.80;;;;;;;7.59;68.77;99858.55;1692815;83;20922;-56
2021/11/09 00:38:42;;;;;;;1.40;0.80;;;;;;;7.63;68.84;99865.15;1682201;83;20992;-56
2021/11/09 00:41:08;;;;;;;2.07;1.00;;;;;;;7.65;68.88;99863.30;1660475;84;21074;-56
2021/11/09 00:43:35;;;;;;;2.43;0.93;;;;;;;7.67;68.90;99857.40;1658633;84;21072;-56
2021/11/09 00:46:01;;;;;;;1.70;0.90;;;;;;;7.70;68.93;99858.18;1661455;84;21150;-56
2021/11/09 00:48:27;;;;;;;2.97;0.93;;;;;;;7.72;68.90;99855.45;1644219;84;20966;-55
2021/11/09 00:50:54;;;;;;;1.53;0.90;;;;;;;7.71;68.90;99858.59;1712938;81;21035;-55
2021/11/09 00:53:21;;;;;;;2.50;1.10;;;;;;;7.66;68.90;99857.86;1711295;81;21809;-55
2021/11/09 00:55:47;;;;;;;3.17;1.10;;;;;;;7.60;69.00;99857.63;1712902;81;21089;-56
2021/11/09 00:58:14;;;;;;;3.00;0.90;;;;;;;7.57;69.06;99865.75;1710162;81;21132;-55
2021/11/09 01:00:42;;;;;;;1.00;0.70;;;;;;;7.54;69.14;99863.20;1691230;82;22235;-56
2021/11/09 01:03:10;;;;;;;3.23;1.03;;;;;;;7.52;69.23;99866.39;1708607;81;21386;-55
2021/11/09 01:05:38;;;;;;;1.73;0.73;;;;;;;7.51;69.37;99857.93;1710858;81;21038;-55
2021/11/09 01:08:08;;;;;;;1.70;1.13;;;;;;;7.51;69.47;99873.13;1711798;81;21073;-55
2021/11/09 01:10:39;;;;;;;2.08;0.90;;;;;;;7.52;69.59;99878.90;1713975;81;21094;-55
2021/11/09 01:13:05;;;;;;;2.33;0.83;;;;;;;7.52;69.68;99879.78;1713202;81;20934;-55
2021/11/09 01:15:34;;;;;;;2.10;1.00;;;;;;;7.54;69.70;99877.05;1714885;81;20946;-55
2021/11/09 01:18:03;;;;;;;3.17;0.90;;;;;;;7.52;69.72;99881.12;1714095;81;21267;-55
2021/11/09 01:20:31;;;;;;;3.67;1.00;;;;;;;7.50;69.82;99878.06;1711430;81;20951;-55
2021/11/09 01:22:57;;;;;;;4.80;1.00;;;;;;;7.44;69.93;99881.84;1715022;81;22520;-56
2021/11/09 01:25:26;;;;;;;1.37;0.77;;;;;;;7.41;70.07;99888.63;1710262;82;21160;-55
2021/11/09 01:27:53;;;;;;;1.13;0.60;;;;;;;7.40;70.21;99883.34;1712655;81;21449;-54
2021/11/09 01:30:19;;;;;;;2.33;0.97;;;;;;;7.40;70.33;99885.53;1711056;81;21726;-55
2021/11/09 01:32:50;;;;;;;1.90;0.77;;;;;;;7.41;70.40;99891.30;1711511;81;21606;-54
2021/11/09 01:35:17;;;;;;;1.60;0.80;;;;;;;7.45;70.45;99904.14;1710102;81;21165;-55
2021/11/09 01:37:45;;;;;;;3.27;1.00;;;;;;;7.49;70.43;99895.06;1709424;81;21140;-55
2021/11/09 01:40:12;;;;;;;1.53;1.07;;;;;;;7.49;70.43;99894.59;1740735;80;20916;-55
2021/11/09 01:42:38;;;;;;;2.07;0.80;;;;;;;7.50;70.42;99892.80;1743226;80;21013;-55
2021/11/09 01:45:08;;;;;;;4.13;0.93;;;;;;;7.47;70.41;99897.82;1740502;80;21561;-55
2021/11/09 01:47:35;;;;;;;2.07;1.40;;;;;;;7.43;70.54;99898.83;1745641;80;20903;-55
2021/11/09 01:50:05;;;;;;;5.50;1.20;;;;;;;7.39;70.64;99906.57;1742788;80;20970;-55
2021/11/09 01:52:31;;;;;;;3.33;1.57;;;;;;;7.38;70.78;99907.49;1740259;80;21077;-55
2021/11/09 01:54:58;;;;;;;2.17;0.80;;;;;;;7.36;70.95;99908.00;1742323;80;21342;-56
2021/11/09 01:57:25;;;;;;;3.23;0.80;;;;;;;7.38;71.06;99907.49;1740498;80;21236;-56
2021/11/09 01:59:52;;;;;;;1.87;0.80;;;;;;;7.40;71.12;99905.62;1739556;80;22360;-55
2021/11/09 02:02:19;;;;;;;4.60;0.80;;;;;;;7.41;71.17;99904.69;1742479;80;21034;-55
2021/11/09 02:04:46;;;;;;;3.50;1.37;;;;;;;7.42;71.11;99917.63;1741677;80;21057;-55
2021/11/09 02:07:12;;;;;;;5.93;1.57;;;;;;;7.41;71.17;99923.90;1736474;80;21050;-55
2021/11/09 02:09:39;;;;;;;2.13;0.93;;;;;;;7.40;71.20;99925.70;1741237;80;21128;-55
2021/11/09 02:12:06;;;;;;;4.50;1.10;;;;;;;7.38;71.30;99931.59;1738856;80;21124;-55
2021/11/09 02:14:34;;;;;;;1.90;1.00;;;;;;;7.37;71.46;99935.66;1739875;80;21411;-54
2021/11/09 02:17:01;;;;;;;2.60;0.60;;;;;;;7.34;71.59;99941.98;1737085;80;21621;-55
2021/11/09 02:19:29;;;;;;;1.30;0.63;;;;;;;7.29;71.68;99939.92;1740835;80;21333;-55
2021/11/09 02:21:57;;;;;;;0.60;0.47;;;;;;;7.22;71.71;99939.70;1738236;80;21117;-56
2021/11/09 02:24:23;;;;;;;1.40;0.53;;;;;;;7.19;71.85;99949.16;1739339;80;21839;-56
2021/11/09 02:26:51;;;;;;;0.73;0.40;;;;;;;7.18;71.86;99949.63;1736006;80;21074;-56
2021/11/09 02:29:18;;;;;;;0.77;0.30;;;;;;;7.22;71.81;99955.77;1737643;80;21363;-56
2021/11/09 02:31:44;;;;;;;1.00;0.50;;;;;;;7.18;71.65;99949.63;1737810;80;21471;-56
2021/11/09 02:34:10;;;;;;;0.70;0.30;;;;;;;7.17;71.63;99944.31;1738976;80;21471;-56
2021/11/09 02:36:36;;;;;;;0.50;0.40;;;;;;;7.13;71.63;99945.34;1740322;80;21098;-55
2021/11/09 02:39:03;;;;;;;0.50;0.30;;;;;;;7.08;71.72;99944.13;1736560;80;21065;-56
2021/11/09 02:41:29;;;;;;;0.60;0.40;;;;;;;7.03;71.86;99946.55;1729914;80;21113;-55
2021/11/09 02:43:58;;;;;;;0.50;0.30;;;;;;;6.96;71.99;99950.34;1730363;80;21074;-56
2021/11/09 02:46:33;;;;;;;0.50;0.30;;;;;;;6.91;72.21;99959.83;1731399;80;21747;-55
2021/11/09 02:51:35;;;;;;;0.60;0.20;;;;;;;6.85;72.65;99972.06;1729735;80;21468;-55
2021/11/09 02:54:21;;;;;;;1.30;0.40;;;;;;;6.81;72.67;99967.71;1730160;80;21145;-56
2021/11/09 02:56:44;;;;;;;0.67;0.37;;;;;;;6.80;72.91;99971.34;1725371;80;20939;-56
2021/11/09 02:59:24;;;;;;;0.47;0.30;;;;;;;6.81;73.00;99975.28;1729780;80;20915;-56
2021/11/09 03:01:53;;;;;;;0.73;0.30;;;;;;;6.84;73.04;99977.87;1734905;80;21067;-56
2021/11/09 03:06:49;;;;;;;0.50;0.27;;;;;;;6.78;72.89;99970.50;1703511;80;20966;-55
2021/11/09 03:09:16;;;;;;;0.30;0.20;;;;;;;6.72;72.80;99972.87;1733520;80;20919;-55
2021/11/09 03:12:04;;;;;;;0.33;0.27;;;;;;;6.64;72.62;99985.59;1730044;80;21377;-56
2021/11/09 03:14:11;;;;;;;0.30;0.20;;;;;;;6.58;72.63;99987.11;1729746;80;21860;-55
2021/11/09 03:16:41;;;;;;;0.27;0.17;;;;;;;6.55;72.48;99991.20;1735511;80;21887;-55
2021/11/09 03:46:31;;;;;;;1.17;0.20;;;;;;;6.15;70.96;100018.60;1675485;83;21146;-55
2021/11/09 03:48:58;;;;;;;0.63;0.10;;;;;;;6.17;70.96;100030.14;1712041;80;21574;-55
2021/11/09 03:51:24;;;;;;;0.10;0.10;;;;;;;6.20;70.88;100034.08;1732931;80;21050;-55
2021/11/09 03:53:57;;;;;;;0.13;0.10;;;;;;;6.22;70.73;100030.42;1732042;80;21103;-56
2021/11/09 03:56:25;;;;;;;0.33;0.10;;;;;;;6.25;70.58;100035.70;1733346;80;21091;-55
2021/11/09 03:58:50;;;;;;;0.30;0.20;;;;;;;6.29;70.46;100036.52;1733914;80;20942;-55
2021/11/09 04:01:23;;;;;;;1.47;0.10;;;;;;;6.29;70.34;100038.73;1732896;80;21699;-55
2021/11/09 04:11:54;;;;;;;;;;;;;;;6.06;69.90;100049.11;1733160;80;21037;-54
2021/11/09 04:19:29;;;;;;;0.30;0.20;;;;;;;5.84;70.06;100046.53;1735049;80;22293;-54
2021/11/09 04:27:19;;;;;;;0.40;0.20;;;;;;;5.72;69.97;100058.38;1736492;80;20966;-55
2021/11/09 04:30:04;;;;;;;0.20;0.20;;;;;;;5.69;69.85;100058.47;1731674;80;21033;-55
2021/11/09 05:09:45;;;;;;;1.07;0.30;;;;;;;4.87;71.43;100114.48;1739735;80;21041;-55
2021/11/09 05:12:10;;;;;;;0.50;0.30;;;;;;;4.78;71.62;100128.45;1740999;80;21462;-55
2021/11/09 05:14:38;;;;;;;0.60;0.20;;;;;;;4.69;71.79;100126.84;1742112;80;20931;-55
2021/11/09 05:17:04;;;;;;;0.30;0.20;;;;;;;4.63;72.03;100129.63;1740127;80;21033;-55
2021/11/09 05:19:31;;;;;;;0.67;0.30;;;;;;;4.56;72.28;100130.64;1739423;80;22329;-55
2021/11/09 05:21:57;;;;;;;0.43;0.27;;;;;;;4.55;72.50;100134.22;1736292;80;21083;-55
2021/11/09 05:24:24;;;;;;;0.43;0.20;;;;;;;4.53;72.61;100136.91;1739962;80;21513;-55
2021/11/09 05:26:50;;;;;;;2.27;0.20;;;;;;;4.54;72.71;100137.78;1739656;80;21093;-55
2021/11/09 05:29:16;;;;;;;1.23;0.37;;;;;;;4.51;72.73;100146.70;1737199;80;21057;-55
2021/11/09 05:31:43;;;;;;;1.03;0.30;;;;;;;4.45;72.51;100154.82;1736809;80;21116;-55
2021/11/09 05:34:10;;;;;;;1.27;0.20;;;;;;;4.34;72.53;100161.26;1738479;80;21088;-54
2021/11/09 05:36:39;;;;;;;1.67;0.17;;;;;;;4.24;72.53;100160.52;1733303;80;22536;-55
2021/11/09 05:41:36;;;;;;;2.53;0.20;;;;;;;4.13;72.58;100176.67;1728216;80;21042;-55
2021/11/09 05:44:02;;;;;;;0.30;0.20;;;;;;;4.15;72.52;100177.98;1724021;81;21081;-54
2021/11/09 05:46:28;;;;;;;2.47;0.20;;;;;;;4.16;72.59;100188.63;1726175;81;22436;-54
2021/11/09 05:48:54;;;;;;;0.30;0.20;;;;;;;4.21;72.57;100189.87;1723471;81;21857;-55
2021/11/09 05:51:21;;;;;;;1.33;0.30;;;;;;;4.26;72.48;100193.78;1722870;81;21698;-55
2021/11/09 05:53:49;;;;;;;0.37;0.27;;;;;;;4.28;72.46;100203.52;1724789;81;21080;-54
2021/11/09 05:56:16;;;;;;;0.73;0.30;;;;;;;4.29;72.43;100200.41;1724856;81;21115;-55
2021/11/09 05:58:42;;;;;;;0.73;0.30;;;;;;;4.26;71.94;100197.77;1728380;81;21038;-55
2021/11/09 06:01:09;;;;;;;1.10;0.20;;;;;;;4.17;71.52;100210.78;1727660;81;21136;-54
2021/11/09 06:03:36;;;;;;;0.30;0.20;;;;;;;4.06;71.60;100212.30;1719519;81;21065;-55
2021/11/09 06:06:03;;;;;;;0.20;0.20;;;;;;;4.00;71.49;100215.48;1727643;81;21097;-54
2021/11/09 06:08:29;;;;;;;1.37;0.30;;;;;;;3.98;71.50;100218.20;1725603;81;21344;-55
2021/11/09 06:10:55;;;;;;;0.33;0.30;;;;;;;4.00;71.35;100217.70;1726804;81;22431;-54
2021/11/09 06:13:23;;;;;;;0.40;0.30;;;;;;;4.01;71.19;100221.24;1724339;81;21471;-55
2021/11/09 06:15:51;;;;;;;0.27;0.20;;;;;;;4.00;71.02;100231.46;1722443;81;21713;-54
2021/11/09 06:18:17;;;;;;;0.23;0.20;;;;;;;3.93;70.76;100236.45;1722116;81;21106;-54
2021/11/09 06:20:44;;;;;;;1.10;0.20;;;;;;;3.85;70.94;100237.89;1725696;81;21172;-54
2021/11/09 06:23:10;;;;;;;0.30;0.20;;;;;;;3.84;70.99;100249.89;1726575;81;21068;-54
2021/11/09 06:25:38;;;;;;;0.17;0.17;;;;;;;3.86;71.02;100247.64;1726525;81;21900;-55
2021/11/09 06:28:06;;;;;;;0.60;0.30;;;;;;;3.89;71.01;100254.27;1695944;82;21046;-55
2021/11/09 06:30:33;;;;;;;0.20;0.20;;;;;;;3.92;70.86;100262.20;1728622;81;21363;-53
2021/11/09 06:33:00;;;;;;;0.40;0.30;;;;;;;3.90;70.84;100264.03;1729527;81;20939;-55
2021/11/09 06:35:26;;;;;;;0.50;0.37;;;;;;;3.88;70.72;100271.60;1727210;81;20991;-54
2021/11/09 06:37:52;;;;;;;0.60;0.40;;;;;;;3.84;70.79;100273.41;1726402;81;21751;-55
2021/11/09 06:40:19;;;;;;;0.40;0.40;;;;;;;3.81;70.46;100280.13;1724939;81;21392;-56
2021/11/09 06:42:47;;;;;;;0.43;0.30;;;;;;;3.70;70.38;100284.24;1721270;81;21320;-55
2021/11/09 06:45:13;;;;;;;0.40;0.30;;;;;;;3.63;70.50;100283.89;1723871;81;21118;-55
2021/11/09 06:47:41;;;;;;;0.93;0.30;;;;;;;3.62;70.40;100283.91;1725288;81;21540;-56
2021/11/09 06:50:08;;;;;;;0.70;0.30;;;;;;;3.57;70.33;100289.74;1724085;81;21203;-56
2021/11/09 06:52:35;;;;;;;1.00;0.30;;;;;;;3.54;70.46;100298.63;1719542;81;21155;-55
2021/11/09 06:55:02;;;;;;;3.00;0.40;;;;;;;3.52;70.42;100295.09;1727529;81;20971;-55
2021/11/09 06:57:29;;;;;;;0.50;0.30;;;;;;;3.52;70.44;100310.19;1727631;81;20959;-55
2021/11/09 06:59:56;;;;;;;1.10;0.40;;;;;;;3.48;70.48;100311.13;1730191;81;21453;-55
2021/11/09 07:02:23;;;;;;;1.80;0.50;;;;;;;3.48;70.57;100309.80;1726123;81;21367;-54
2021/11/09 07:04:49;;;;;;;0.80;0.50;;;;;;;3.48;70.62;100316.45;1729473;81;21097;-55
2021/11/09 07:07:16;;;;;;;2.03;0.80;;;;;;;3.47;70.64;100322.67;1723430;81;21125;-55
2021/11/09 07:09:42;;;;;;;2.30;0.50;;;;;;;3.43;70.72;100316.04;1721891;81;21112;-55
2021/11/09 07:12:08;;;;;;;1.20;0.40;;;;;;;3.44;70.75;100323.58;1720298;81;21056;-55
2021/11/09 07:14:35;;;;;;;2.93;0.50;;;;;;;3.45;70.79;100330.67;1675125;81;21444;-56
2021/11/09 07:17:02;;;;;;;1.37;0.50;;;;;;;3.47;70.91;100335.53;1728570;81;21378;-55
2021/11/09 07:19:30;;;;;;;2.80;0.40;;;;;;;3.48;70.92;100341.74;1728487;81;20951;-55
2021/11/09 07:21:57;;;;;;;1.83;0.33;;;;;;;3.46;70.43;100343.08;1728290;81;20887;-56
2021/11/09 07:24:25;;;;;;;1.30;0.60;;;;;;;3.39;70.46;100340.94;1735471;81;20974;-55
2021/11/09 07:26:51;;;;;;;0.80;0.50;;;;;;;3.36;70.68;100352.05;1727012;81;22273;-56
2021/11/09 07:29:18;;;;;;;2.67;0.47;;;;;;;3.37;70.77;100357.36;1724424;81;20931;-55
2021/11/09 07:31:44;;;;;;;0.80;0.50;;;;;;;3.41;70.85;100370.17;1728715;80;21071;-55
2021/11/09 07:34:11;;;;;;;0.70;0.30;;;;;;;3.44;70.69;100359.50;1727862;81;21160;-55
2021/11/09 07:36:37;;;;;;;1.20;0.40;;;;;;;3.48;70.57;100364.36;1725609;81;21498;-55
2021/11/09 07:39:06;;;;;;;1.73;0.30;;;;;;;3.48;70.35;100365.25;1724212;81;22236;-55
2021/11/09 07:41:32;;;;;;;0.40;0.30;;;;;;;3.51;70.29;100377.17;1723540;81;21428;-54
2021/11/09 07:44:02;;;;;;;1.03;0.73;;;;;;;3.53;70.17;100378.50;1729038;81;20987;-55
2021/11/09 07:46:28;;;;;;;1.93;0.60;;;;;;;3.52;70.01;100370.95;1727762;81;21069;-55
2021/11/09 07:48:54;;;;;;;0.60;0.40;;;;;;;3.49;69.84;100377.62;1722507;81;21133;-55
2021/11/09 07:51:22;;;;;;;0.90;0.40;;;;;;;3.43;70.00;100374.59;1724732;81;21146;-55
2021/11/09 07:53:49;;;;;;;1.07;0.30;;;;;;;3.42;69.92;100384.80;1724807;81;21113;-55
2021/11/09 07:56:19;;;;;;;0.93;0.30;;;;;;;3.45;69.51;100392.33;1722210;81;21057;-56
2021/11/09 08:01:34;;;;;;;0.80;0.30;;;;;;;3.53;68.89;100394.02;1721871;81;21136;-55
2021/11/09 08:06:28;;;;;;;0.77;0.30;;;;;;;3.70;68.13;100404.05;1726667;81;21093;-55
2021/11/09 08:09:19;;;;;;;0.40;0.20;;;;;;;3.70;67.69;100412.05;1730513;81;20960;-54
2021/11/09 08:11:44;;;;;;;0.33;0.20;;;;;;;3.70;67.33;100422.69;1728124;81;20950;-55
2021/11/09 08:14:10;;;;;;;0.40;0.33;;;;;;;3.65;66.83;100411.66;1725451;81;21164;-55
2021/11/09 08:16:38;;;;;;;0.60;0.40;;;;;;;3.62;66.81;100427.21;1723246;81;21081;-54
2021/11/09 08:19:05;;;;;;;0.50;0.20;;;;;;;3.60;66.13;100417.46;1721867;81;21081;-56
2021/11/09 08:21:33;;;;;;;1.20;0.30;;;;;;;3.56;65.86;100441.03;1726549;81;21085;-55
2021/11/09 08:24:00;;;;;;;1.57;0.50;;;;;;;3.53;65.66;100437.94;1726460;81;21117;-55
2021/11/09 08:26:26;;;;;;;1.20;0.30;;;;;;;3.53;65.62;100444.59;1723473;81;21081;-56
2021/11/09 08:28:54;;;;;;;0.30;0.20;;;;;;;3.55;65.15;100442.81;1722383;81;21105;-57
2021/11/09 08:31:23;;;;;;;0.40;0.20;;;;;;;3.53;64.96;100445.92;1725545;81;21371;-56
2021/11/09 08:33:50;;;;;;;0.70;0.20;;;;;;;3.52;65.07;100447.27;1727176;81;21100;-55
2021/11/09 08:36:29;;;;;;;0.60;0.23;;;;;;;3.52;65.29;100449.48;1729780;81;21093;-55
2021/11/09 08:38:53;;;;;;;0.30;0.10;;;;;;;3.55;65.34;100450.80;1725584;81;21081;-55
2021/11/09 08:41:26;;;;;;;0.30;0.20;;;;;;;3.59;64.78;100449.86;1724895;80;20997;-56
2021/11/09 08:44:01;;;;;;;0.43;0.20;;;;;;;3.63;64.90;100451.61;1737047;80;21053;-57
2021/11/09 08:46:24;;;;;;;0.68;0.20;;;;;;;3.67;64.71;100456.44;1738544;80;22262;-56
2021/11/09 08:48:53;;;;;;;0.20;0.20;;;;;;;3.69;64.41;100458.20;1697598;82;21070;-55
2021/11/09 08:51:40;;;;;;;0.30;0.20;;;;;;;3.66;64.37;100463.54;1739431;80;21092;-55
2021/11/09 08:56:55;;;;;;;0.40;0.30;;;;;;;3.69;64.52;100469.30;1712670;82;21291;-56
2021/11/09 09:04:47;;;;;;;0.37;0.20;;;;;;;3.71;64.70;100472.84;1742262;80;21484;-56
2021/11/09 09:07:13;;;;;;;0.43;0.20;;;;;;;3.75;64.63;100472.77;1742271;80;21420;-56
2021/11/09 09:09:40;;;;;;;0.20;0.10;;;;;;;3.79;64.51;100486.96;1741219;80;20914;-55
2021/11/09 09:12:07;;;;;;;0.40;0.27;;;;;;;3.80;63.99;100480.30;1741182;80;20898;-55
2021/11/09 09:14:33;;;;;;;0.67;0.20;;;;;;;3.80;63.78;100482.07;1741809;80;20867;-56
2021/11/09 09:17:02;;;;;;;0.30;0.20;;;;;;;3.78;63.66;100485.19;1745670;80;20914;-56
2021/11/09 09:19:41;;;;;;;0.47;0.20;;;;;;;3.78;63.61;100490.07;1705040;82;21128;-56
2021/11/09 09:22:09;;;;;;;0.45;0.20;;;;;;;3.79;63.59;100497.16;1736029;80;20921;-55
2021/11/09 09:24:57;;;;;;;0.50;0.30;;;;;;;3.79;63.61;100501.16;1741850;80;20978;-57
2021/11/09 09:54:40;;;;;;;0.40;0.20;;;;;;;3.97;59.21;100524.08;1726243;81;21141;-55
2021/11/09 09:56:52;;;;;;;0.10;0.10;;;;;;;3.96;59.22;100527.64;1725031;81;21092;-55
2021/11/09 09:59:22;;;;;;;0.23;0.20;;;;;;;4.00;58.71;100533.80;1722738;81;21134;-55
2021/11/09 10:02:10;;;;;;;0.10;0.10;;;;;;;4.05;58.97;100529.33;1722134;81;21085;-56
2021/11/09 10:04:44;;;;;;;0.30;0.17;;;;;;;4.14;58.78;100529.25;1724263;81;21643;-56
2021/11/09 10:07:13;;;;;;;0.40;0.20;;;;;;;4.23;58.16;100531.83;1727622;81;21481;-55
2021/11/09 10:09:45;;;;;;;0.40;0.20;;;;;;;4.25;57.48;100536.70;1728098;81;21140;-55
2021/11/09 10:12:32;;;;;;;1.70;0.20;;;;;;;4.21;57.77;100540.72;1725369;81;21383;-57
2021/11/09 10:15:00;;;;;;;1.50;0.20;;;;;;;4.15;57.57;100542.56;1723350;81;21144;-56
2021/11/09 10:17:27;;;;;;;0.80;0.20;;;;;;;4.07;57.40;100543.53;1729418;81;21015;-56
2021/11/09 10:19:55;;;;;;;1.80;0.30;;;;;;;3.96;57.23;100538.30;1726186;81;21036;-56
2021/11/09 10:22:30;;;;;;;0.40;0.20;;;;;;;3.88;57.30;100539.26;1723412;81;21661;-56
2021/11/09 10:25:10;;;;;;;0.30;0.20;;;;;;;3.84;57.47;100538.39;1723833;81;21071;-55
2021/11/09 10:27:39;;;;;;;0.50;0.10;;;;;;;3.85;57.24;100540.16;1721113;81;21065;-55
2021/11/09 10:30:12;;;;;;;1.00;0.20;;;;;;;3.90;56.82;100542.36;1727181;81;21045;-55
2021/11/09 10:32:38;;;;;;;0.20;0.10;;;;;;;3.97;56.84;100537.84;1729544;81;20966;-56
2021/11/09 10:35:08;;;;;;;0.30;0.20;;;;;;;4.09;56.71;100536.38;1727866;81;20974;-56
2021/11/09 10:37:38;;;;;;;1.60;0.20;;;;;;;4.18;55.93;100542.51;1727199;81;21086;-57
2021/11/09 10:40:17;;;;;;;0.63;0.10;;;;;;;4.25;54.48;100547.36;1727557;81;22212;-55
2021/11/09 10:42:47;;;;;;;1.60;0.10;;;;;;;4.27;55.25;100544.20;1727311;81;21035;-57
2021/11/09 10:45:16;;;;;;;0.23;0.10;;;;;;;4.23;54.70;100544.27;1727448;81;21401;-57
2021/11/09 10:47:44;;;;;;;1.70;0.10;;;;;;;4.15;54.69;100543.01;1727378;81;21121;-55
2021/11/09 10:50:22;;;;;;;0.77;0.10;;;;;;;4.03;54.83;100546.66;1727863;81;21146;-55
2021/11/09 11:04:36;;;;;;;0.30;0.20;;;;;;;3.96;56.26;100553.39;1726021;81;21121;-54
2021/11/09 11:07:06;;;;;;;0.23;0.20;;;;;;;4.02;56.20;100555.55;1726883;81;21591;-54
2021/11/09 11:09:37;;;;;;;1.13;0.20;;;;;;;4.05;55.78;100563.52;1725705;81;21503;-53
2021/11/09 11:12:11;;;;;;;0.30;0.20;;;;;;;4.08;55.41;100568.80;1727208;81;20975;-55
2021/11/09 11:14:41;;;;;;;0.30;0.13;;;;;;;4.08;55.13;100566.62;1723331;81;21026;-56
2021/11/09 11:17:16;;;;;;;0.67;0.10;;;;;;;4.09;54.33;100562.58;1728042;81;22716;-55
2021/11/09 11:19:49;;;;;;;0.27;0.10;;;;;;;4.12;54.49;100565.23;1723232;81;21553;-55
2021/11/09 11:22:17;;;;;;;1.73;0.20;;;;;;;4.18;54.09;100572.27;1725664;81;21097;-55
2021/11/09 11:24:47;;;;;;;0.70;0.30;;;;;;;4.24;54.30;100570.91;1670405;84;21710;-54
2021/11/09 11:27:14;;;;;;;0.30;0.20;;;;;;;4.30;54.28;100572.61;1687471;82;21077;-53
2021/11/09 11:29:41;;;;;;;0.47;0.10;;;;;;;4.34;53.73;100581.88;1724724;81;22548;-54
2021/11/09 11:32:09;;;;;;;0.73;0.10;;;;;;;4.33;52.62;100587.25;1730557;81;21077;-55
2021/11/09 11:34:36;;;;;;;0.80;0.10;;;;;;;4.25;51.50;100587.78;1728486;81;21022;-55
2021/11/09 11:37:02;;;;;;;0.30;0.10;;;;;;;4.15;51.46;100593.64;1723256;81;21074;-55
2021/11/09 11:39:30;;;;;;;0.17;0.10;;;;;;;4.07;51.75;100592.38;1724974;81;21091;-54
2021/11/09 11:42:01;;;;;;;0.30;0.17;;;;;;;4.00;52.25;100593.74;1728098;81;21441;-54
2021/11/09 11:44:30;;;;;;;0.30;0.20;;;;;;;3.98;52.37;100592.45;1726498;81;20915;-54
2021/11/09 11:47:16;;;;;;;0.30;0.10;;;;;;;3.98;52.61;100599.55;1721666;81;21540;-55
2021/11/09 11:49:53;;;;;;;;;;;;;;;4.00;52.71;100600.41;1723860;81;20974;-55
2021/11/09 11:52:28;;;;;;;0.30;0.10;;;;;;;4.02;52.57;100598.61;1720091;81;20159;-56
2021/11/09 11:57:06;;;;;;;0.53;0.10;;;;;;;4.06;52.00;100599.05;1862859;75;26326;-54
2021/11/09 11:59:38;;;;;;;0.30;0.10;;;;;;;4.04;51.65;100603.48;1836426;75;21408;-54
2021/11/09 12:02:06;;;;;;;0.23;0.10;;;;;;;4.07;51.69;100609.69;1841677;75;21207;-55
2021/11/09 12:04:53;;;;;;;1.27;0.10;;;;;;;4.10;51.60;100619.41;1838833;75;20945;-55
2021/11/09 12:07:22;;;;;;;0.23;0.10;;;;;;;4.12;51.63;100618.52;1841802;75;21622;-55
2021/11/09 12:09:51;;;;;;;0.40;0.20;;;;;;;4.15;51.64;100615.84;1814956;75;20925;-55
2021/11/09 12:12:26;;;;;;;5.30;0.20;;;;;;;4.19;51.86;100622.00;1787655;78;21408;-54
2021/11/09 12:15:03;;;;;;;0.60;0.10;;;;;;;4.22;52.35;100631.32;1823857;77;20849;-57
2021/11/09 12:17:42;;;;;;;1.20;0.20;;;;;;;4.23;51.60;100632.20;1785934;78;20859;-56
2021/11/09 12:20:19;;;;;;;0.50;0.30;;;;;;;4.21;51.74;100629.55;1785173;79;21489;-54
2021/11/09 12:22:49;;;;;;;0.63;0.30;;;;;;;4.19;51.18;100636.66;1792357;79;20867;-54
2021/11/09 12:25:23;;;;;;;0.50;0.20;;;;;;;4.16;51.12;100635.38;1821564;77;21160;-55
2021/11/09 12:27:57;;;;;;;0.65;0.30;;;;;;;4.14;51.36;100643.38;1812971;77;22891;-56
2021/11/09 12:30:46;;;;;;;1.27;0.20;;;;;;;4.13;50.82;100642.94;1815447;77;21226;-54
2021/11/09 12:33:21;;;;;;;0.30;0.23;;;;;;;4.11;50.42;100633.17;1832870;75;21082;-55
2021/11/09 12:36:05;;;;;;;2.00;0.13;;;;;;;4.06;50.15;100656.32;1836300;75;20883;-57
2021/11/09 12:38:40;;;;;;;3.40;0.10;;;;;;;4.01;49.37;100659.00;1833463;75;22046;-54
2021/11/09 12:41:15;;;;;;;0.50;0.20;;;;;;;3.97;49.18;100656.39;1806822;77;21688;-55
2021/11/09 12:43:55;;;;;;;1.23;0.20;;;;;;;3.92;49.47;100667.05;1802875;77;21029;-54
2021/11/09 12:46:41;;;;;;;0.77;0.30;;;;;;;3.93;49.70;100673.27;1827882;76;21053;-54
2021/11/09 12:49:20;;;;;;;0.57;0.30;;;;;;;3.89;50.07;100673.75;1834853;75;21299;-55
2021/11/09 12:51:53;;;;;;;0.40;0.20;;;;;;;3.88;50.03;100681.75;1836408;75;21025;-55
2021/11/09 12:54:26;;;;;;;0.30;0.20;;;;;;;3.87;49.94;100683.97;1833367;75;21319;-55
2021/11/09 12:57:01;;;;;;;0.90;0.20;;;;;;;3.86;50.01;100691.52;1832311;75;21076;-54
2021/11/09 12:59:30;;;;;;;0.33;0.20;;;;;;;3.87;50.19;100691.52;1831124;75;20932;-54
2021/11/09 13:07:34;;;;;;;2.77;0.20;;;;;;;3.86;50.59;100703.51;1830159;75;21762;-54
2021/11/09 13:10:12;;;;;;;0.70;0.20;;;;;;;3.83;50.60;100703.06;1832581;75;21052;-56
2021/11/09 13:12:38;;;;;;;1.70;0.30;;;;;;;3.82;50.80;100717.31;1839574;75;21025;-56
2021/11/09 13:15:19;;;;;;;0.63;0.30;;;;;;;3.81;51.19;100718.20;1834983;75;21087;-56
2021/11/09 13:18:03;;;;;;;0.50;0.33;;;;;;;3.83;51.48;100727.52;1836751;75;21288;-56
2021/11/09 13:23:11;;;;;;;1.70;0.20;;;;;;;3.84;51.97;100734.58;1838918;75;21026;-54
2021/11/09 13:25:51;;;;;;;1.73;0.20;;;;;;;3.83;52.20;100733.70;1838858;75;21030;-54
2021/11/09 13:28:34;;;;;;;1.10;0.20;;;;;;;3.82;52.46;100739.06;1834542;75;21371;-56
2021/11/09 13:31:09;;;;;;;0.50;0.20;;;;;;;3.78;52.57;100748.38;1835930;75;21067;-55
2021/11/09 13:33:41;;;;;;;;;;;;;;;3.72;52.76;100751.53;1837486;75;21094;-56
2021/11/09 13:36:09;;;;;;;0.57;0.20;;;;;;;3.63;52.51;100753.78;1841832;75;20156;-55
2021/11/09 13:38:41;;;;;;;1.23;0.40;;;;;;;3.50;52.58;100773.78;1835931;75;21018;-54
2021/11/09 13:41:28;;;;;;;0.53;0.30;;;;;;;3.38;52.92;100771.63;1827354;75;21081;-56
2021/11/09 13:43:54;;;;;;;0.60;0.40;;;;;;;3.29;52.95;100782.30;1833643;75;22503;-53
2021/11/09 13:46:29;;;;;;;0.47;0.30;;;;;;;3.20;53.21;100780.09;1830046;75;21168;-56
2021/11/09 13:48:55;;;;;;;2.20;0.40;;;;;;;3.16;53.45;100795.16;1831330;75;21022;-56
2021/11/09 13:51:24;;;;;;;0.60;0.30;;;;;;;3.11;53.83;100791.64;1839028;75;21077;-55
2021/11/09 13:54:04;;;;;;;0.50;0.30;;;;;;;3.08;54.10;100808.03;1842231;75;20891;-55
2021/11/09 13:56:30;;;;;;;2.90;0.67;;;;;;;3.06;54.33;100804.52;1833720;75;20997;-56
2021/11/09 13:59:06;;;;;;;0.40;0.30;;;;;;;3.05;54.38;100828.89;1825611;77;21816;-55
2021/11/09 14:12:51;;;;;;;1.17;0.40;;;;;;;2.92;54.35;100835.09;1829177;77;20887;-54
2021/11/09 14:15:26;;;;;;;0.73;0.50;;;;;;;2.88;54.38;100840.87;1833524;77;20998;-54
2021/11/09 14:17:46;;;;;;;2.27;0.60;;;;;;;2.83;54.62;100843.95;1828096;77;21026;-55
2021/11/09 14:20:17;;;;;;;3.57;0.50;;;;;;;2.80;54.89;100855.05;1826821;77;21105;-54
2021/11/09 14:22:47;;;;;;;2.80;0.90;;;;;;;2.73;54.99;100866.09;1827724;77;21470;-55
2021/11/09 14:25:15;;;;;;;3.10;1.03;;;;;;;2.67;55.28;100870.09;1839007;77;21107;-54
2021/11/09 14:27:46;;;;;;;2.77;1.80;;;;;;;2.59;55.27;100871.84;1825882;77;21953;-54
2021/11/09 14:30:24;;;;;;;1.40;0.50;;;;;;;2.52;55.51;100878.04;1825807;77;21065;-56
2021/11/09 14:32:51;;;;;;;2.40;0.60;;;;;;;2.48;55.64;100899.72;1814823;77;21524;-55